Portada
METAR-TAF:

METAR-TAF

Aeropuertos :

Aeropuerto de Valladolid

Valladolid, España

latitud: 41-43N, longitud: 004-51W, altitud: 849 m

Observación

El informe se hizo hace 15 minutos, a las 12:30 UTC
Viento 10 kt del norte, variando entre norte-noroeste y noreste
Temperatura 17°C
Humedad 48%
Presión 1018 hPa
Visibilidad 10 km o más
Cielo nuboso a una altura de 4200 ft

METAR: LEVD 261230Z 01010KT 330V050 9999 BKN042 17/06 Q1018

Hora: 14:45 (12:45 UTC)

Pronóstico

El informe se hizo hace 4 horas y 45 minutos, a las 08:00 UTC
Pronóstico válido del 26 a las 09 UTC al 27 a las 09 UTC
Viento 8 kt del noreste
Visibilidad 10 km o más
sin nubes por debajo de 1500 m y sin presencia de cumulonimbus.
Evolucionando progresivamente
del 26 a las 13 UTC al 26 a las 15 UTC
Viento 6 kt del norte-noroeste

TAF: LEVD 260800Z 2609/2709 05008KT CAVOK TX19/2615Z TN07/2706Z BECMG 2613/2615 33006KT

Observaciones y pronósticos meteorológicos de más de 4000 aeropuertos (mensajes METAR y TAF).

Los puntos amarillos y rojos representan las estaciones disponibles.

Ponga el ratón en el punto deseado para ver el nombre de la estación.

Haga clic para ver las observaciones y los pronósticos meteorológicos.

Para cambiar el mapa : haga clic en los botones verdes con una cruz de color negro para hacer un zoom, en el botón verde con un guión para alejar o en las flechas verdes para mapas adyacentes.


METAR-TAF: